sensor_id;sensor_type;location;lat;lon;timestamp;temperature;humidity
9666;DHT22;4871;52.004;5.924;2022-12-07T00:00:00;5.2;82.7
9666;DHT22;4871;52.004;5.924;2022-12-07T00:01:10;5.2;82.7
9666;DHT22;4871;52.004;5.924;2022-12-07T00:02:00;5.2;82.7
9666;DHT22;4871;52.004;5.924;2022-12-07T00:03:00;5.3;82.6
9666;DHT22;4871;52.004;5.924;2022-12-07T00:04:05;5.2;82.7
9666;DHT22;4871;52.004;5.924;2022-12-07T00:05:00;5.2;82.8
9666;DHT22;4871;52.004;5.924;2022-12-07T00:06:00;5.2;82.8
9666;DHT22;4871;52.004;5.924;2022-12-07T00:07:00;5.2;82.8
9666;DHT22;4871;52.004;5.924;2022-12-07T00:08:00;5.2;82.7
9666;DHT22;4871;52.004;5.924;2022-12-07T00:09:00;5.2;82.7
9666;DHT22;4871;52.004;5.924;2022-12-07T00:10:00;5.2;82.7
9666;DHT22;4871;52.004;5.924;2022-12-07T00:11:02;5.2;82.8
9666;DHT22;4871;52.004;5.924;2022-12-07T00:12:00;5.2;82.6
9666;DHT22;4871;52.004;5.924;2022-12-07T00:13:00;5.2;82.5
9666;DHT22;4871;52.004;5.924;2022-12-07T00:14:02;5.1;82.7
9666;DHT22;4871;52.004;5.924;2022-12-07T00:15:00;5.2;82.6
9666;DHT22;4871;52.004;5.924;2022-12-07T00:16:02;5.1;82.8
9666;DHT22;4871;52.004;5.924;2022-12-07T00:17:00;5.1;82.6
9666;DHT22;4871;52.004;5.924;2022-12-07T00:18:00;5.1;82.7
9666;DHT22;4871;52.004;5.924;2022-12-07T00:19:00;5.1;82.7
9666;DHT22;4871;52.004;5.924;2022-12-07T00:20:00;5.1;82.7
9666;DHT22;4871;52.004;5.924;2022-12-07T00:21:02;5.1;82.8
9666;DHT22;4871;52.004;5.924;2022-12-07T00:22:00;5.1;82.6
9666;DHT22;4871;52.004;5.924;2022-12-07T00:23:00;5.0;82.7
9666;DHT22;4871;52.004;5.924;2022-12-07T00:24:01;5.0;82.8
9666;DHT22;4871;52.004;5.924;2022-12-07T00:25:00;5.0;82.8
9666;DHT22;4871;52.004;5.924;2022-12-07T00:26:04;5.0;82.9
9666;DHT22;4871;52.004;5.924;2022-12-07T00:27:00;5.0;82.8
9666;DHT22;4871;52.004;5.924;2022-12-07T00:28:00;5.0;82.7
9666;DHT22;4871;52.004;5.924;2022-12-07T00:29:07;5.0;82.7
9666;DHT22;4871;52.004;5.924;2022-12-07T00:30:00;5.0;82.8
9666;DHT22;4871;52.004;5.924;2022-12-07T00:31:02;5.0;83.0
9666;DHT22;4871;52.004;5.924;2022-12-07T00:32:00;4.9;82.8
9666;DHT22;4871;52.004;5.924;2022-12-07T00:33:00;5.0;82.9
9666;DHT22;4871;52.004;5.924;2022-12-07T00:34:00;5.0;82.8
9666;DHT22;4871;52.004;5.924;2022-12-07T00:35:00;4.9;83.0
9666;DHT22;4871;52.004;5.924;2022-12-07T00:36:01;5.0;82.9
9666;DHT22;4871;52.004;5.924;2022-12-07T00:37:00;5.0;82.7
9666;DHT22;4871;52.004;5.924;2022-12-07T00:38:00;4.9;82.8
9666;DHT22;4871;52.004;5.924;2022-12-07T00:39:00;4.9;82.8
9666;DHT22;4871;52.004;5.924;2022-12-07T00:40:00;4.9;82.8
9666;DHT22;4871;52.004;5.924;2022-12-07T00:41:02;4.9;82.8
9666;DHT22;4871;52.004;5.924;2022-12-07T00:42:00;4.9;83.0
9666;DHT22;4871;52.004;5.924;2022-12-07T00:43:00;4.9;82.8
9666;DHT22;4871;52.004;5.924;2022-12-07T00:44:00;4.9;82.6
9666;DHT22;4871;52.004;5.924;2022-12-07T00:45:00;4.9;82.8
9666;DHT22;4871;52.004;5.924;2022-12-07T00:46:00;4.9;82.9
9666;DHT22;4871;52.004;5.924;2022-12-07T00:47:00;4.9;82.8
9666;DHT22;4871;52.004;5.924;2022-12-07T00:48:00;4.9;82.7
9666;DHT22;4871;52.004;5.924;2022-12-07T00:49:00;4.9;82.7
9666;DHT22;4871;52.004;5.924;2022-12-07T00:50:00;4.9;82.7
9666;DHT22;4871;52.004;5.924;2022-12-07T00:51:00;4.9;82.5
9666;DHT22;4871;52.004;5.924;2022-12-07T00:52:00;4.9;82.9
9666;DHT22;4871;52.004;5.924;2022-12-07T00:53:00;4.9;82.7
9666;DHT22;4871;52.004;5.924;2022-12-07T00:54:00;4.8;82.6
9666;DHT22;4871;52.004;5.924;2022-12-07T00:55:00;4.9;82.9
9666;DHT22;4871;52.004;5.924;2022-12-07T00:56:08;4.9;82.7
9666;DHT22;4871;52.004;5.924;2022-12-07T00:57:00;4.8;82.7
9666;DHT22;4871;52.004;5.924;2022-12-07T00:58:00;4.8;82.7
9666;DHT22;4871;52.004;5.924;2022-12-07T00:59:01;4.8;82.8
9666;DHT22;4871;52.004;5.924;2022-12-07T01:00:00;4.8;82.7
9666;DHT22;4871;52.004;5.924;2022-12-07T01:01:01;4.8;82.7
9666;DHT22;4871;52.004;5.924;2022-12-07T01:02:00;4.8;82.9
9666;DHT22;4871;52.004;5.924;2022-12-07T01:03:00;4.8;82.7
9666;DHT22;4871;52.004;5.924;2022-12-07T01:04:01;4.8;82.8
9666;DHT22;4871;52.004;5.924;2022-12-07T01:05:00;4.7;82.8
9666;DHT22;4871;52.004;5.924;2022-12-07T01:06:00;4.7;83.0
9666;DHT22;4871;52.004;5.924;2022-12-07T01:07:00;4.7;82.8
9666;DHT22;4871;52.004;5.924;2022-12-07T01:08:00;4.7;82.8
9666;DHT22;4871;52.004;5.924;2022-12-07T01:09:00;4.7;83.0
9666;DHT22;4871;52.004;5.924;2022-12-07T01:10:00;4.7;82.9
9666;DHT22;4871;52.004;5.924;2022-12-07T01:11:04;4.7;82.9
9666;DHT22;4871;52.004;5.924;2022-12-07T01:12:00;4.7;82.9
9666;DHT22;4871;52.004;5.924;2022-12-07T01:13:00;4.7;82.9
9666;DHT22;4871;52.004;5.924;2022-12-07T01:14:00;4.7;82.8
9666;DHT22;4871;52.004;5.924;2022-12-07T01:15:00;4.7;82.9
9666;DHT22;4871;52.004;5.924;2022-12-07T01:16:03;4.7;82.9
9666;DHT22;4871;52.004;5.924;2022-12-07T01:17:00;4.7;82.8
9666;DHT22;4871;52.004;5.924;2022-12-07T01:18:00;4.7;82.7
9666;DHT22;4871;52.004;5.924;2022-12-07T01:19:00;4.7;82.6
9666;DHT22;4871;52.004;5.924;2022-12-07T01:20:00;4.7;82.8
9666;DHT22;4871;52.004;5.924;2022-12-07T01:22:00;4.7;82.7
9666;DHT22;4871;52.004;5.924;2022-12-07T01:23:00;4.6;82.6
9666;DHT22;4871;52.004;5.924;2022-12-07T01:24:00;4.6;82.7
9666;DHT22;4871;52.004;5.924;2022-12-07T01:25:00;4.6;82.8
9666;DHT22;4871;52.004;5.924;2022-12-07T01:26:03;4.6;82.9
9666;DHT22;4871;52.004;5.924;2022-12-07T01:27:00;4.6;83.0
9666;DHT22;4871;52.004;5.924;2022-12-07T01:28:00;4.6;82.8
9666;DHT22;4871;52.004;5.924;2022-12-07T01:29:00;4.6;82.9
9666;DHT22;4871;52.004;5.924;2022-12-07T01:30:00;4.5;82.9
9666;DHT22;4871;52.004;5.924;2022-12-07T01:31:03;4.6;82.9
9666;DHT22;4871;52.004;5.924;2022-12-07T01:32:00;4.6;82.6
9666;DHT22;4871;52.004;5.924;2022-12-07T01:33:00;4.6;82.6
9666;DHT22;4871;52.004;5.924;2022-12-07T01:34:00;4.5;82.9
9666;DHT22;4871;52.004;5.924;2022-12-07T01:35:00;4.5;82.8
9666;DHT22;4871;52.004;5.924;2022-12-07T01:36:05;4.5;82.8
9666;DHT22;4871;52.004;5.924;2022-12-07T01:37:00;4.5;82.8
9666;DHT22;4871;52.004;5.924;2022-12-07T01:38:00;4.5;82.9
9666;DHT22;4871;52.004;5.924;2022-12-07T01:39:02;4.5;82.8
9666;DHT22;4871;52.004;5.924;2022-12-07T01:40:00;4.5;83.0
9666;DHT22;4871;52.004;5.924;2022-12-07T01:41:01;4.5;82.9
9666;DHT22;4871;52.004;5.924;2022-12-07T01:42:00;4.5;82.8
9666;DHT22;4871;52.004;5.924;2022-12-07T01:43:00;4.5;82.9
9666;DHT22;4871;52.004;5.924;2022-12-07T01:44:16;4.5;82.9
9666;DHT22;4871;52.004;5.924;2022-12-07T01:45:28;4.5;82.9
9666;DHT22;4871;52.004;5.924;2022-12-07T01:46:00;4.5;82.9
9666;DHT22;4871;52.004;5.924;2022-12-07T01:47:02;4.5;82.8
9666;DHT22;4871;52.004;5.924;2022-12-07T01:48:00;4.4;82.8
9666;DHT22;4871;52.004;5.924;2022-12-07T01:49:01;4.4;82.7
9666;DHT22;4871;52.004;5.924;2022-12-07T01:50:00;4.4;82.8
9666;DHT22;4871;52.004;5.924;2022-12-07T01:51:04;4.4;83.0
9666;DHT22;4871;52.004;5.924;2022-12-07T01:52:06;4.5;82.9
9666;DHT22;4871;52.004;5.924;2022-12-07T01:53:03;4.5;82.6
9666;DHT22;4871;52.004;5.924;2022-12-07T01:54:00;4.5;82.8
9666;DHT22;4871;52.004;5.924;2022-12-07T01:55:03;4.5;82.7
9666;DHT22;4871;52.004;5.924;2022-12-07T01:56:00;4.5;82.7
9666;DHT22;4871;52.004;5.924;2022-12-07T01:57:00;4.4;82.7
9666;DHT22;4871;52.004;5.924;2022-12-07T01:58:00;4.4;82.8
9666;DHT22;4871;52.004;5.924;2022-12-07T01:59:00;4.4;82.8
9666;DHT22;4871;52.004;5.924;2022-12-07T02:00:00;4.4;82.7
9666;DHT22;4871;52.004;5.924;2022-12-07T02:01:00;4.4;82.8
9666;DHT22;4871;52.004;5.924;2022-12-07T02:03:04;4.4;82.9
9666;DHT22;4871;52.004;5.924;2022-12-07T02:04:00;4.4;82.9
9666;DHT22;4871;52.004;5.924;2022-12-07T02:05:02;4.4;83.0
9666;DHT22;4871;52.004;5.924;2022-12-07T02:06:00;4.4;82.8
9666;DHT22;4871;52.004;5.924;2022-12-07T02:07:00;4.4;82.8
9666;DHT22;4871;52.004;5.924;2022-12-07T02:08:00;4.4;82.8
9666;DHT22;4871;52.004;5.924;2022-12-07T02:09:00;4.4;82.6
9666;DHT22;4871;52.004;5.924;2022-12-07T02:10:18;4.3;82.6
9666;DHT22;4871;52.004;5.924;2022-12-07T02:11:03;4.3;82.9
9666;DHT22;4871;52.004;5.924;2022-12-07T02:12:00;4.3;82.9
9666;DHT22;4871;52.004;5.924;2022-12-07T02:13:04;4.3;83.0
9666;DHT22;4871;52.004;5.924;2022-12-07T02:14:00;4.3;83.0
9666;DHT22;4871;52.004;5.924;2022-12-07T02:15:00;4.3;82.7
9666;DHT22;4871;52.004;5.924;2022-12-07T02:16:11;4.3;82.8
9666;DHT22;4871;52.004;5.924;2022-12-07T02:18:07;4.3;83.0
9666;DHT22;4871;52.004;5.924;2022-12-07T02:19:14;4.3;82.9
9666;DHT22;4871;52.004;5.924;2022-12-07T02:20:09;4.3;82.8
9666;DHT22;4871;52.004;5.924;2022-12-07T02:21:11;4.3;82.7
9666;DHT22;4871;52.004;5.924;2022-12-07T02:22:01;4.3;82.7
9666;DHT22;4871;52.004;5.924;2022-12-07T02:23:12;4.3;82.8
9666;DHT22;4871;52.004;5.924;2022-12-07T02:24:13;4.3;82.8
9666;DHT22;4871;52.004;5.924;2022-12-07T02:29:13;4.2;82.7
9666;DHT22;4871;52.004;5.924;2022-12-07T02:30:19;4.3;82.7
9666;DHT22;4871;52.004;5.924;2022-12-07T02:31:04;4.3;82.9
9666;DHT22;4871;52.004;5.924;2022-12-07T02:32:08;4.3;82.7
9666;DHT22;4871;52.004;5.924;2022-12-07T02:33:06;4.2;82.8
9666;DHT22;4871;52.004;5.924;2022-12-07T02:34:07;4.3;82.6
9666;DHT22;4871;52.004;5.924;2022-12-07T02:35:18;4.2;82.7
9666;DHT22;4871;52.004;5.924;2022-12-07T02:36:11;4.2;82.8
9666;DHT22;4871;52.004;5.924;2022-12-07T02:37:03;4.2;82.8
9666;DHT22;4871;52.004;5.924;2022-12-07T02:39:06;4.2;82.9
9666;DHT22;4871;52.004;5.924;2022-12-07T02:40:05;4.2;82.7
9666;DHT22;4871;52.004;5.924;2022-12-07T02:41:07;4.2;82.9
9666;DHT22;4871;52.004;5.924;2022-12-07T02:42:05;4.2;82.5
9666;DHT22;4871;52.004;5.924;2022-12-07T02:43:04;4.1;82.8
9666;DHT22;4871;52.004;5.924;2022-12-07T02:44:02;4.1;82.9
9666;DHT22;4871;52.004;5.924;2022-12-07T02:45:01;4.1;83.0
9666;DHT22;4871;52.004;5.924;2022-12-07T02:46:04;4.1;82.9
9666;DHT22;4871;52.004;5.924;2022-12-07T02:47:03;4.1;82.8
9666;DHT22;4871;52.004;5.924;2022-12-07T02:48:00;4.2;82.9
9666;DHT22;4871;52.004;5.924;2022-12-07T02:49:00;4.1;82.8
9666;DHT22;4871;52.004;5.924;2022-12-07T02:50:02;4.2;82.8
9666;DHT22;4871;52.004;5.924;2022-12-07T02:51:00;4.1;82.6
9666;DHT22;4871;52.004;5.924;2022-12-07T02:52:00;4.1;82.7
9666;DHT22;4871;52.004;5.924;2022-12-07T02:53:00;4.1;82.9
9666;DHT22;4871;52.004;5.924;2022-12-07T02:54:00;4.1;83.0
9666;DHT22;4871;52.004;5.924;2022-12-07T02:55:00;4.1;82.7
9666;DHT22;4871;52.004;5.924;2022-12-07T02:57:08;4.1;82.7
9666;DHT22;4871;52.004;5.924;2022-12-07T02:58:14;4.1;82.8
9666;DHT22;4871;52.004;5.924;2022-12-07T02:59:08;4.1;82.7
9666;DHT22;4871;52.004;5.924;2022-12-07T03:00:04;4.0;82.8
9666;DHT22;4871;52.004;5.924;2022-12-07T03:02:15;4.1;82.8
9666;DHT22;4871;52.004;5.924;2022-12-07T03:03:03;4.0;82.7
9666;DHT22;4871;52.004;5.924;2022-12-07T03:04:18;4.1;82.7
9666;DHT22;4871;52.004;5.924;2022-12-07T03:07:05;4.0;82.8
9666;DHT22;4871;52.004;5.924;2022-12-07T03:10:14;4.0;82.9
9666;DHT22;4871;52.004;5.924;2022-12-07T03:11:03;4.0;82.9
9666;DHT22;4871;52.004;5.924;2022-12-07T03:12:09;4.1;82.8
9666;DHT22;4871;52.004;5.924;2022-12-07T03:14:04;4.0;82.7
9666;DHT22;4871;52.004;5.924;2022-12-07T03:15:03;4.0;82.9
9666;DHT22;4871;52.004;5.924;2022-12-07T03:17:12;4.0;83.0
9666;DHT22;4871;52.004;5.924;2022-12-07T03:18:02;4.0;83.0
9666;DHT22;4871;52.004;5.924;2022-12-07T03:19:06;4.0;82.9
9666;DHT22;4871;52.004;5.924;2022-12-07T03:20:04;4.0;82.8
9666;DHT22;4871;52.004;5.924;2022-12-07T03:21:03;4.1;82.7
9666;DHT22;4871;52.004;5.924;2022-12-07T03:22:03;4.1;82.8
9666;DHT22;4871;52.004;5.924;2022-12-07T03:23:00;4.1;82.7
9666;DHT22;4871;52.004;5.924;2022-12-07T03:24:04;4.1;82.8
9666;DHT22;4871;52.004;5.924;2022-12-07T03:25:04;4.1;82.6
9666;DHT22;4871;52.004;5.924;2022-12-07T03:26:00;4.1;82.6
9666;DHT22;4871;52.004;5.924;2022-12-07T03:27:04;4.1;82.7
9666;DHT22;4871;52.004;5.924;2022-12-07T03:28:02;4.1;82.7
9666;DHT22;4871;52.004;5.924;2022-12-07T03:29:05;4.1;82.7
9666;DHT22;4871;52.004;5.924;2022-12-07T03:30:10;4.1;82.7
9666;DHT22;4871;52.004;5.924;2022-12-07T03:31:10;4.1;82.8
9666;DHT22;4871;52.004;5.924;2022-12-07T03:32:04;4.1;82.7
9666;DHT22;4871;52.004;5.924;2022-12-07T03:33:04;4.1;82.7
9666;DHT22;4871;52.004;5.924;2022-12-07T03:34:11;4.1;82.8
9666;DHT22;4871;52.004;5.924;2022-12-07T03:35:05;4.1;82.8
9666;DHT22;4871;52.004;5.924;2022-12-07T03:36:04;4.1;82.7
9666;DHT22;4871;52.004;5.924;2022-12-07T03:37:04;4.1;82.7
9666;DHT22;4871;52.004;5.924;2022-12-07T03:38:05;4.1;82.6
9666;DHT22;4871;52.004;5.924;2022-12-07T03:40:07;4.1;82.8
9666;DHT22;4871;52.004;5.924;2022-12-07T03:42:00;4.1;82.7
9666;DHT22;4871;52.004;5.924;2022-12-07T03:43:02;4.1;82.7
9666;DHT22;4871;52.004;5.924;2022-12-07T03:44:00;4.1;82.6
9666;DHT22;4871;52.004;5.924;2022-12-07T03:45:01;4.1;82.6
9666;DHT22;4871;52.004;5.924;2022-12-07T03:47:04;4.1;82.6
9666;DHT22;4871;52.004;5.924;2022-12-07T03:48:15;4.1;82.7
9666;DHT22;4871;52.004;5.924;2022-12-07T03:49:19;4.1;82.4
9666;DHT22;4871;52.004;5.924;2022-12-07T03:51:08;4.1;82.6
9666;DHT22;4871;52.004;5.924;2022-12-07T03:52:23;4.1;82.6
9666;DHT22;4871;52.004;5.924;2022-12-07T03:53:05;4.1;82.7
9666;DHT22;4871;52.004;5.924;2022-12-07T03:54:07;4.1;82.6
9666;DHT22;4871;52.004;5.924;2022-12-07T03:55:18;4.1;82.5
9666;DHT22;4871;52.004;5.924;2022-12-07T03:56:01;4.1;82.5
9666;DHT22;4871;52.004;5.924;2022-12-07T03:57:01;4.1;82.6
9666;DHT22;4871;52.004;5.924;2022-12-07T03:58:04;4.1;82.7
9666;DHT22;4871;52.004;5.924;2022-12-07T03:59:00;4.1;82.6
9666;DHT22;4871;52.004;5.924;2022-12-07T04:00:03;4.1;82.7
9666;DHT22;4871;52.004;5.924;2022-12-07T04:01:00;4.2;82.6
9666;DHT22;4871;52.004;5.924;2022-12-07T04:02:03;4.1;82.6
9666;DHT22;4871;52.004;5.924;2022-12-07T04:03:00;4.1;82.7
9666;DHT22;4871;52.004;5.924;2022-12-07T04:04:00;4.1;82.6
9666;DHT22;4871;52.004;5.924;2022-12-07T04:05:01;4.1;82.6
9666;DHT22;4871;52.004;5.924;2022-12-07T04:06:00;4.1;82.7
9666;DHT22;4871;52.004;5.924;2022-12-07T04:07:00;4.1;82.7
9666;DHT22;4871;52.004;5.924;2022-12-07T04:08:00;4.1;82.6
9666;DHT22;4871;52.004;5.924;2022-12-07T04:09:00;4.1;82.6
9666;DHT22;4871;52.004;5.924;2022-12-07T04:10:00;4.2;82.6
9666;DHT22;4871;52.004;5.924;2022-12-07T04:11:00;4.2;82.6
9666;DHT22;4871;52.004;5.924;2022-12-07T04:12:00;4.2;82.6
9666;DHT22;4871;52.004;5.924;2022-12-07T04:13:00;4.2;82.5
9666;DHT22;4871;52.004;5.924;2022-12-07T04:14:10;4.2;82.6
9666;DHT22;4871;52.004;5.924;2022-12-07T04:15:00;4.1;82.8
9666;DHT22;4871;52.004;5.924;2022-12-07T04:16:00;4.1;82.7
9666;DHT22;4871;52.004;5.924;2022-12-07T04:17:00;4.2;82.5
9666;DHT22;4871;52.004;5.924;2022-12-07T04:18:00;4.2;82.6
9666;DHT22;4871;52.004;5.924;2022-12-07T04:19:00;4.2;82.6
9666;DHT22;4871;52.004;5.924;2022-12-07T04:20:00;4.1;82.5
9666;DHT22;4871;52.004;5.924;2022-12-07T04:21:00;4.2;82.6
9666;DHT22;4871;52.004;5.924;2022-12-07T04:22:01;4.1;82.5
9666;DHT22;4871;52.004;5.924;2022-12-07T04:23:00;4.1;82.5
9666;DHT22;4871;52.004;5.924;2022-12-07T04:24:00;4.1;82.6
9666;DHT22;4871;52.004;5.924;2022-12-07T04:25:00;4.1;82.6
9666;DHT22;4871;52.004;5.924;2022-12-07T04:26:00;4.1;82.6
9666;DHT22;4871;52.004;5.924;2022-12-07T04:27:00;4.1;82.6
9666;DHT22;4871;52.004;5.924;2022-12-07T04:28:00;4.1;82.6
9666;DHT22;4871;52.004;5.924;2022-12-07T04:29:00;4.1;82.4
9666;DHT22;4871;52.004;5.924;2022-12-07T04:30:00;4.1;82.4
9666;DHT22;4871;52.004;5.924;2022-12-07T04:31:00;4.1;82.5
9666;DHT22;4871;52.004;5.924;2022-12-07T04:32:00;4.1;82.6
9666;DHT22;4871;52.004;5.924;2022-12-07T04:33:00;4.1;82.6
9666;DHT22;4871;52.004;5.924;2022-12-07T04:34:00;4.1;82.6
9666;DHT22;4871;52.004;5.924;2022-12-07T04:35:00;4.1;82.5
9666;DHT22;4871;52.004;5.924;2022-12-07T04:36:00;4.1;82.4
9666;DHT22;4871;52.004;5.924;2022-12-07T04:37:00;4.1;82.4
9666;DHT22;4871;52.004;5.924;2022-12-07T04:38:00;4.1;82.5
9666;DHT22;4871;52.004;5.924;2022-12-07T04:39:00;4.1;82.6
9666;DHT22;4871;52.004;5.924;2022-12-07T04:40:00;4.1;82.5
9666;DHT22;4871;52.004;5.924;2022-12-07T04:41:05;4.1;82.7
9666;DHT22;4871;52.004;5.924;2022-12-07T04:42:00;4.1;82.7
9666;DHT22;4871;52.004;5.924;2022-12-07T04:43:00;4.1;82.7
9666;DHT22;4871;52.004;5.924;2022-12-07T04:44:02;4.1;82.6
9666;DHT22;4871;52.004;5.924;2022-12-07T04:45:00;4.1;82.5
9666;DHT22;4871;52.004;5.924;2022-12-07T04:46:00;4.1;82.6
9666;DHT22;4871;52.004;5.924;2022-12-07T04:47:00;4.1;82.6
9666;DHT22;4871;52.004;5.924;2022-12-07T04:48:00;4.1;82.6
9666;DHT22;4871;52.004;5.924;2022-12-07T04:49:00;4.1;82.4
9666;DHT22;4871;52.004;5.924;2022-12-07T04:50:00;4.1;82.7
9666;DHT22;4871;52.004;5.924;2022-12-07T04:51:00;4.1;82.6
9666;DHT22;4871;52.004;5.924;2022-12-07T04:52:00;4.1;82.5
9666;DHT22;4871;52.004;5.924;2022-12-07T04:53:00;4.1;82.5
9666;DHT22;4871;52.004;5.924;2022-12-07T04:54:00;4.1;82.5
9666;DHT22;4871;52.004;5.924;2022-12-07T04:55:00;4.1;82.5
9666;DHT22;4871;52.004;5.924;2022-12-07T04:56:01;4.1;82.8
9666;DHT22;4871;52.004;5.924;2022-12-07T04:57:00;4.1;82.5
9666;DHT22;4871;52.004;5.924;2022-12-07T04:58:00;4.1;82.6
9666;DHT22;4871;52.004;5.924;2022-12-07T04:59:00;4.1;82.6
9666;DHT22;4871;52.004;5.924;2022-12-07T05:00:00;4.2;82.5
9666;DHT22;4871;52.004;5.924;2022-12-07T05:01:00;4.2;82.5
9666;DHT22;4871;52.004;5.924;2022-12-07T05:02:00;4.1;82.5
9666;DHT22;4871;52.004;5.924;2022-12-07T05:03:00;4.2;82.5
9666;DHT22;4871;52.004;5.924;2022-12-07T05:04:00;4.2;82.4
9666;DHT22;4871;52.004;5.924;2022-12-07T05:05:00;4.2;82.5
9666;DHT22;4871;52.004;5.924;2022-12-07T05:06:00;4.2;82.5
9666;DHT22;4871;52.004;5.924;2022-12-07T05:07:00;4.1;82.4
9666;DHT22;4871;52.004;5.924;2022-12-07T05:08:00;4.1;82.6
9666;DHT22;4871;52.004;5.924;2022-12-07T05:09:02;4.1;82.4
9666;DHT22;4871;52.004;5.924;2022-12-07T05:10:00;4.1;82.6
9666;DHT22;4871;52.004;5.924;2022-12-07T05:11:01;4.1;82.5
9666;DHT22;4871;52.004;5.924;2022-12-07T05:12:00;4.1;82.5
9666;DHT22;4871;52.004;5.924;2022-12-07T05:13:00;4.2;82.4
9666;DHT22;4871;52.004;5.924;2022-12-07T05:14:00;4.1;82.4
9666;DHT22;4871;52.004;5.924;2022-12-07T05:15:00;4.1;82.7
9666;DHT22;4871;52.004;5.924;2022-12-07T05:16:00;4.1;82.6
9666;DHT22;4871;52.004;5.924;2022-12-07T05:17:00;4.1;82.6
9666;DHT22;4871;52.004;5.924;2022-12-07T05:18:00;4.1;82.5
9666;DHT22;4871;52.004;5.924;2022-12-07T05:19:00;4.1;82.5
9666;DHT22;4871;52.004;5.924;2022-12-07T05:20:00;4.1;82.4
9666;DHT22;4871;52.004;5.924;2022-12-07T05:21:00;4.1;82.5
9666;DHT22;4871;52.004;5.924;2022-12-07T05:22:00;4.1;82.5
9666;DHT22;4871;52.004;5.924;2022-12-07T05:23:00;4.1;82.3
9666;DHT22;4871;52.004;5.924;2022-12-07T05:24:00;4.1;82.4
9666;DHT22;4871;52.004;5.924;2022-12-07T05:25:00;4.1;82.3
9666;DHT22;4871;52.004;5.924;2022-12-07T05:26:00;4.1;82.4
9666;DHT22;4871;52.004;5.924;2022-12-07T05:27:00;4.1;82.3
9666;DHT22;4871;52.004;5.924;2022-12-07T05:28:00;4.1;82.4
9666;DHT22;4871;52.004;5.924;2022-12-07T05:29:00;4.0;82.4
9666;DHT22;4871;52.004;5.924;2022-12-07T05:30:00;4.0;82.4
9666;DHT22;4871;52.004;5.924;2022-12-07T05:31:00;4.0;82.4
9666;DHT22;4871;52.004;5.924;2022-12-07T05:32:00;4.0;82.7
9666;DHT22;4871;52.004;5.924;2022-12-07T05:33:00;4.0;82.5
9666;DHT22;4871;52.004;5.924;2022-12-07T05:34:00;4.0;82.6
9666;DHT22;4871;52.004;5.924;2022-12-07T05:35:00;4.0;82.6
9666;DHT22;4871;52.004;5.924;2022-12-07T05:36:05;4.0;82.5
9666;DHT22;4871;52.004;5.924;2022-12-07T05:37:00;4.0;82.5
9666;DHT22;4871;52.004;5.924;2022-12-07T05:38:00;4.0;82.5
9666;DHT22;4871;52.004;5.924;2022-12-07T05:39:00;3.9;82.7
9666;DHT22;4871;52.004;5.924;2022-12-07T05:40:00;3.9;82.6
9666;DHT22;4871;52.004;5.924;2022-12-07T05:41:02;3.9;82.6
9666;DHT22;4871;52.004;5.924;2022-12-07T05:42:10;3.9;82.7
9666;DHT22;4871;52.004;5.924;2022-12-07T05:43:00;4.0;82.7
9666;DHT22;4871;52.004;5.924;2022-12-07T05:44:00;4.0;82.5
9666;DHT22;4871;52.004;5.924;2022-12-07T05:45:00;4.0;82.6
9666;DHT22;4871;52.004;5.924;2022-12-07T05:46:00;3.9;82.5
9666;DHT22;4871;52.004;5.924;2022-12-07T05:47:00;4.0;82.6
9666;DHT22;4871;52.004;5.924;2022-12-07T05:48:00;4.0;82.6
9666;DHT22;4871;52.004;5.924;2022-12-07T05:49:01;4.0;82.6
9666;DHT22;4871;52.004;5.924;2022-12-07T05:50:00;4.0;82.5
9666;DHT22;4871;52.004;5.924;2022-12-07T05:51:00;4.0;82.5
9666;DHT22;4871;52.004;5.924;2022-12-07T05:52:00;4.0;82.5
9666;DHT22;4871;52.004;5.924;2022-12-07T05:53:00;4.0;82.6
9666;DHT22;4871;52.004;5.924;2022-12-07T05:54:00;3.9;82.5
9666;DHT22;4871;52.004;5.924;2022-12-07T05:55:00;4.0;82.6
9666;DHT22;4871;52.004;5.924;2022-12-07T05:56:00;3.9;82.5
9666;DHT22;4871;52.004;5.924;2022-12-07T05:57:00;4.0;82.4
9666;DHT22;4871;52.004;5.924;2022-12-07T05:58:10;3.9;82.5
9666;DHT22;4871;52.004;5.924;2022-12-07T05:59:10;3.9;82.6
9666;DHT22;4871;52.004;5.924;2022-12-07T06:00:00;3.9;82.7
9666;DHT22;4871;52.004;5.924;2022-12-07T06:01:00;3.9;82.6
9666;DHT22;4871;52.004;5.924;2022-12-07T06:02:03;4.0;82.6
9666;DHT22;4871;52.004;5.924;2022-12-07T06:03:00;4.0;82.2
9666;DHT22;4871;52.004;5.924;2022-12-07T06:04:00;4.0;82.5
9666;DHT22;4871;52.004;5.924;2022-12-07T06:05:00;3.9;82.4
9666;DHT22;4871;52.004;5.924;2022-12-07T06:06:00;4.0;82.5
9666;DHT22;4871;52.004;5.924;2022-12-07T06:07:00;3.9;82.5
9666;DHT22;4871;52.004;5.924;2022-12-07T06:08:00;3.9;82.4
9666;DHT22;4871;52.004;5.924;2022-12-07T06:09:00;3.9;82.3
9666;DHT22;4871;52.004;5.924;2022-12-07T06:10:00;3.9;82.3
9666;DHT22;4871;52.004;5.924;2022-12-07T06:11:10;3.9;82.4
9666;DHT22;4871;52.004;5.924;2022-12-07T06:12:11;3.9;82.5
9666;DHT22;4871;52.004;5.924;2022-12-07T06:13:00;3.9;82.5
9666;DHT22;4871;52.004;5.924;2022-12-07T06:14:00;3.9;82.3
9666;DHT22;4871;52.004;5.924;2022-12-07T06:15:00;3.9;82.5
9666;DHT22;4871;52.004;5.924;2022-12-07T06:16:00;3.9;82.5
9666;DHT22;4871;52.004;5.924;2022-12-07T06:17:00;3.9;82.5
9666;DHT22;4871;52.004;5.924;2022-12-07T06:18:00;3.8;82.5
9666;DHT22;4871;52.004;5.924;2022-12-07T06:19:00;3.9;82.4
9666;DHT22;4871;52.004;5.924;2022-12-07T06:20:00;3.9;82.4
9666;DHT22;4871;52.004;5.924;2022-12-07T06:21:00;3.9;82.3
9666;DHT22;4871;52.004;5.924;2022-12-07T06:22:00;3.9;82.4
9666;DHT22;4871;52.004;5.924;2022-12-07T06:23:00;3.8;82.5
9666;DHT22;4871;52.004;5.924;2022-12-07T06:24:01;3.8;82.5
9666;DHT22;4871;52.004;5.924;2022-12-07T06:25:01;3.8;82.5
9666;DHT22;4871;52.004;5.924;2022-12-07T06:26:00;3.8;82.6
9666;DHT22;4871;52.004;5.924;2022-12-07T06:27:00;3.8;82.6
9666;DHT22;4871;52.004;5.924;2022-12-07T06:28:00;3.8;82.6
9666;DHT22;4871;52.004;5.924;2022-12-07T06:29:00;3.8;82.5
9666;DHT22;4871;52.004;5.924;2022-12-07T06:30:05;3.8;82.5
9666;DHT22;4871;52.004;5.924;2022-12-07T06:31:01;3.8;82.3
9666;DHT22;4871;52.004;5.924;2022-12-07T06:32:00;3.8;82.5
9666;DHT22;4871;52.004;5.924;2022-12-07T06:33:00;3.8;82.5
9666;DHT22;4871;52.004;5.924;2022-12-07T06:34:02;3.8;82.5
9666;DHT22;4871;52.004;5.924;2022-12-07T06:35:00;3.8;82.4
9666;DHT22;4871;52.004;5.924;2022-12-07T06:36:00;3.8;82.5
9666;DHT22;4871;52.004;5.924;2022-12-07T06:37:00;3.8;82.5
9666;DHT22;4871;52.004;5.924;2022-12-07T06:38:00;3.7;82.7
9666;DHT22;4871;52.004;5.924;2022-12-07T06:39:00;3.7;82.6
9666;DHT22;4871;52.004;5.924;2022-12-07T06:40:00;3.8;82.6
9666;DHT22;4871;52.004;5.924;2022-12-07T06:41:00;3.8;82.5
9666;DHT22;4871;52.004;5.924;2022-12-07T06:42:00;3.7;82.5
9666;DHT22;4871;52.004;5.924;2022-12-07T06:43:00;3.7;82.6
9666;DHT22;4871;52.004;5.924;2022-12-07T06:44:00;3.7;82.6
9666;DHT22;4871;52.004;5.924;2022-12-07T06:45:00;3.7;82.6
9666;DHT22;4871;52.004;5.924;2022-12-07T06:46:00;3.7;82.7
9666;DHT22;4871;52.004;5.924;2022-12-07T06:47:00;3.7;82.6
9666;DHT22;4871;52.004;5.924;2022-12-07T06:48:00;3.7;82.4
9666;DHT22;4871;52.004;5.924;2022-12-07T06:49:00;3.7;82.2
9666;DHT22;4871;52.004;5.924;2022-12-07T06:50:00;3.7;82.5
9666;DHT22;4871;52.004;5.924;2022-12-07T06:51:00;3.7;82.5
9666;DHT22;4871;52.004;5.924;2022-12-07T06:52:00;3.7;82.4
9666;DHT22;4871;52.004;5.924;2022-12-07T06:53:00;3.6;82.6
9666;DHT22;4871;52.004;5.924;2022-12-07T06:54:00;3.6;82.8
9666;DHT22;4871;52.004;5.924;2022-12-07T06:55:00;3.6;82.7
9666;DHT22;4871;52.004;5.924;2022-12-07T06:56:00;3.7;82.8
9666;DHT22;4871;52.004;5.924;2022-12-07T06:57:00;3.6;82.7
9666;DHT22;4871;52.004;5.924;2022-12-07T06:58:01;3.6;82.7
9666;DHT22;4871;52.004;5.924;2022-12-07T06:59:00;3.6;82.7
9666;DHT22;4871;52.004;5.924;2022-12-07T07:00:00;3.6;82.9
9666;DHT22;4871;52.004;5.924;2022-12-07T07:01:00;3.6;82.8
9666;DHT22;4871;52.004;5.924;2022-12-07T07:02:00;3.6;82.8
9666;DHT22;4871;52.004;5.924;2022-12-07T07:03:00;3.6;82.7
9666;DHT22;4871;52.004;5.924;2022-12-07T07:04:00;3.6;82.9
9666;DHT22;4871;52.004;5.924;2022-12-07T07:05:00;3.6;82.7
9666;DHT22;4871;52.004;5.924;2022-12-07T07:06:00;3.6;82.7
9666;DHT22;4871;52.004;5.924;2022-12-07T07:07:00;3.6;82.7
9666;DHT22;4871;52.004;5.924;2022-12-07T07:08:00;3.6;82.6
9666;DHT22;4871;52.004;5.924;2022-12-07T07:09:00;3.6;82.7
9666;DHT22;4871;52.004;5.924;2022-12-07T07:10:00;3.6;82.8
9666;DHT22;4871;52.004;5.924;2022-12-07T07:11:00;3.6;82.8